Aviation Digital Data Service (ADDS)

Output produced by METARs form (1303 UTC 19 January 2019)
found at http://www.aviationweather.gov/metar/data/
 
METAR text: RPLL 191300Z 07006KT 9999 SCT023 27/21 Q1013 NOSIG RMK A2991
Conditions at: RPLL (NINOY AQUINO INT, PH) observed 1300 UTC 19 January 2019
Temperature: 27.0°C (81°F)
Dewpoint: 21.0°C (70°F) [RH = 70%]
Pressure (altimeter): 29.91 inches Hg (1013.0 mb)
Winds: from the ENE (70 degrees) at 7 MPH (6 knots; 3.1 m/s)
Visibility: 6 or more miles (10+ km)
Ceiling: at least 12,000 feet AGL
Clouds: scattered clouds at 2300 feet AGL
Weather: no significant weather observed at this time

METAR text: RPLL 191200Z 09008KT 9999 FEW025 27/21 Q1013 NOSIG RMK A2991
Conditions at: RPLL (NINOY AQUINO INT, PH) observed 1200 UTC 19 January 2019
Temperature: 27.0°C (81°F)
Dewpoint: 21.0°C (70°F) [RH = 70%]
Pressure (altimeter): 29.91 inches Hg (1013.0 mb)
Winds: from the E (90 degrees) at 9 MPH (8 knots; 4.1 m/s)
Visibility: 6 or more miles (10+ km)
Ceiling: at least 12,000 feet AGL
Clouds: few clouds at 2500 feet AGL
Weather: no significant weather observed at this time

METAR text: RPLL 191100Z 09010KT 9999 FEW023 SCT100 27/21 Q1012 NOSIG RMK A2988
Conditions at: RPLL (NINOY AQUINO INT, PH) observed 1100 UTC 19 January 2019
Temperature: 27.0°C (81°F)
Dewpoint: 21.0°C (70°F) [RH = 70%]
Pressure (altimeter): 29.88 inches Hg (1012.0 mb)
Winds: from the E (90 degrees) at 12 MPH (10 knots; 5.1 m/s)
Visibility: 6 or more miles (10+ km)
Ceiling: at least 12,000 feet AGL
Clouds: few clouds at 2300 feet AGL
scattered clouds at 10000 feet AGL
Weather: no significant weather observed at this time

METAR text: RPLL 191000Z 09010KT 9999 FEW023 29/20 Q1011 NOSIG RMK A2985
Conditions at: RPLL (NINOY AQUINO INT, PH) observed 1000 UTC 19 January 2019
Temperature: 29.0°C (84°F)
Dewpoint: 20.0°C (68°F) [RH = 58%]
Pressure (altimeter): 29.85 inches Hg (1011.0 mb)
Winds: from the E (90 degrees) at 12 MPH (10 knots; 5.1 m/s)
Visibility: 6 or more miles (10+ km)
Ceiling: at least 12,000 feet AGL
Clouds: few clouds at 2300 feet AGL
Weather: no significant weather observed at this time

METAR text: RPLL 190900Z 11010KT 9999 SCT025 29/21 Q1011 NOSIG RMK A2985
Conditions at: RPLL (NINOY AQUINO INT, PH) observed 0900 UTC 19 January 2019
Temperature: 29.0°C (84°F)
Dewpoint: 21.0°C (70°F) [RH = 62%]
Pressure (altimeter): 29.85 inches Hg (1011.0 mb)
Winds: from the ESE (110 degrees) at 12 MPH (10 knots; 5.1 m/s)
Visibility: 6 or more miles (10+ km)
Ceiling: at least 12,000 feet AGL
Clouds: scattered clouds at 2500 feet AGL
Weather: no significant weather observed at this time

METAR text: RPLL 190800Z 11010KT 9999 FEW025 30/20 Q1011 NOSIG RMK A2985
Conditions at: RPLL (NINOY AQUINO INT, PH) observed 0800 UTC 19 January 2019
Temperature: 30.0°C (86°F)
Dewpoint: 20.0°C (68°F) [RH = 55%]
Pressure (altimeter): 29.85 inches Hg (1011.0 mb)
Winds: from the ESE (110 degrees) at 12 MPH (10 knots; 5.1 m/s)
Visibility: 6 or more miles (10+ km)
Ceiling: at least 12,000 feet AGL
Clouds: few clouds at 2500 feet AGL
Weather: no significant weather observed at this time

METAR text: RPLL 190700Z 11014KT 9999 SCT025 31/19 Q1010 NOSIG RMK A2983
Conditions at: RPLL (NINOY AQUINO INT, PH) observed 0700 UTC 19 January 2019
Temperature: 31.0°C (88°F)
Dewpoint: 19.0°C (66°F) [RH = 49%]
Pressure (altimeter): 29.82 inches Hg (1010.0 mb)
Winds: from the ESE (110 degrees) at 16 MPH (14 knots; 7.2 m/s)
Visibility: 6 or more miles (10+ km)
Ceiling: at least 12,000 feet AGL
Clouds: scattered clouds at 2500 feet AGL
Weather: no significant weather observed at this time

METAR text: RPLL 190600Z 11012KT 070V150 9999 SCT025 33/20 Q1011 NOSIG RMK A2985
Conditions at: RPLL (NINOY AQUINO INT, PH) observed 0600 UTC 19 January 2019
Temperature: 33.0°C (91°F)
Dewpoint: 20.0°C (68°F) [RH = 46%]
Pressure (altimeter): 29.85 inches Hg (1011.0 mb)
Winds: from the ESE (110 degrees) at 14 MPH (12 knots; 6.2 m/s)
Visibility: 6 or more miles (10+ km)
Ceiling: at least 12,000 feet AGL
Clouds: scattered clouds at 2500 feet AGL
Weather: no significant weather observed at this time

METAR text: RPLL 190500Z 10010KT 9999 SCT025 32/19 Q1013 NOSIG RMK A2991
Conditions at: RPLL (NINOY AQUINO INT, PH) observed 0500 UTC 19 January 2019
Temperature: 32.0°C (90°F)
Dewpoint: 19.0°C (66°F) [RH = 46%]
Pressure (altimeter): 29.91 inches Hg (1013.0 mb)
Winds: from the E (100 degrees) at 12 MPH (10 knots; 5.1 m/s)
Visibility: 6 or more miles (10+ km)
Ceiling: at least 12,000 feet AGL
Clouds: scattered clouds at 2500 feet AGL
Weather: no significant weather observed at this time

METAR text: RPLL 190400Z 10010KT 9999 SCT025 31/19 Q1013 NOSIG RMK A2991
Conditions at: RPLL (NINOY AQUINO INT, PH) observed 0400 UTC 19 January 2019
Temperature: 31.0°C (88°F)
Dewpoint: 19.0°C (66°F) [RH = 49%]
Pressure (altimeter): 29.91 inches Hg (1013.0 mb)
Winds: from the E (100 degrees) at 12 MPH (10 knots; 5.1 m/s)
Visibility: 6 or more miles (10+ km)
Ceiling: at least 12,000 feet AGL
Clouds: scattered clouds at 2500 feet AGL
Weather: no significant weather observed at this time

METAR text: RPLL 190300Z 11010KT 080V150 9999 SCT025 31/20 Q1014 NOSIG RMK A2994
Conditions at: RPLL (NINOY AQUINO INT, PH) observed 0300 UTC 19 January 2019
Temperature: 31.0°C (88°F)
Dewpoint: 20.0°C (68°F) [RH = 52%]
Pressure (altimeter): 29.94 inches Hg (1014.0 mb)
Winds: from the ESE (110 degrees) at 12 MPH (10 knots; 5.1 m/s)
Visibility: 6 or more miles (10+ km)
Ceiling: at least 12,000 feet AGL
Clouds: scattered clouds at 2500 feet AGL
Weather: no significant weather observed at this time

METAR text: RPLL 190200Z 10006KT 080V170 9999 SCT025 29/20 Q1015 NOSIG RMK A2997
Conditions at: RPLL (NINOY AQUINO INT, PH) observed 0200 UTC 19 January 2019
Temperature: 29.0°C (84°F)
Dewpoint: 20.0°C (68°F) [RH = 58%]
Pressure (altimeter): 29.97 inches Hg (1015.0 mb)
Winds: from the E (100 degrees) at 7 MPH (6 knots; 3.1 m/s)
Visibility: 6 or more miles (10+ km)
Ceiling: at least 12,000 feet AGL
Clouds: scattered clouds at 2500 feet AGL
Weather: no significant weather observed at this time

METAR text: RPLL 190100Z 09008KT 060V130 9999 FEW025 28/19 Q1015 NOSIG RMK A2997
Conditions at: RPLL (NINOY AQUINO INT, PH) observed 0100 UTC 19 January 2019
Temperature: 28.0°C (82°F)
Dewpoint: 19.0°C (66°F) [RH = 58%]
Pressure (altimeter): 29.97 inches Hg (1015.0 mb)
Winds: from the E (90 degrees) at 9 MPH (8 knots; 4.1 m/s)
Visibility: 6 or more miles (10+ km)
Ceiling: at least 12,000 feet AGL
Clouds: few clouds at 2500 feet AGL
Weather: no significant weather observed at this time

METAR text: RPLL 190000Z 02004KT 350V090 9000 FEW025 26/19 Q1015 NOSIG RMK A2997
Conditions at: RPLL (NINOY AQUINO INT, PH) observed 0000 UTC 19 January 2019
Temperature: 26.0°C (79°F)
Dewpoint: 19.0°C (66°F) [RH = 65%]
Pressure (altimeter): 29.97 inches Hg (1015.0 mb)
Winds: from the NNE (20 degrees) at 5 MPH (4 knots; 2.1 m/s)
Visibility: 6 miles ( 9 km)
Ceiling: at least 12,000 feet AGL
Clouds: few clouds at 2500 feet AGL
Weather: no significant weather observed at this time

METAR text: RPLL 182300Z VRB02KT 7000 FEW025 24/19 Q1014 NOSIG RMK A2994
Conditions at: RPLL (NINOY AQUINO INT, PH) observed 2300 UTC 18 January 2019
Temperature: 24.0°C (75°F)
Dewpoint: 19.0°C (66°F) [RH = 74%]
Pressure (altimeter): 29.94 inches Hg (1014.0 mb)
Winds: variable direction winds at 2 MPH (2 knots; 1.0 m/s)
Visibility: 4 miles ( 7 km)
Ceiling: at least 12,000 feet AGL
Clouds: few clouds at 2500 feet AGL
Weather: no significant weather observed at this time

METAR text: RPLL 182200Z 00000KT 9999 FEW025 24/19 Q1013 NOSIG RMK A2991
Conditions at: RPLL (NINOY AQUINO INT, PH) observed 2200 UTC 18 January 2019
Temperature: 24.0°C (75°F)
Dewpoint: 19.0°C (66°F) [RH = 74%]
Pressure (altimeter): 29.91 inches Hg (1013.0 mb)
Winds: calm
Visibility: 6 or more miles (10+ km)
Ceiling: at least 12,000 feet AGL
Clouds: few clouds at 2500 feet AGL
Weather: no significant weather observed at this time

METAR text: RPLL 182100Z 10002KT 9999 FEW025 24/19 Q1013 NOSIG RMK A2991
Conditions at: RPLL (NINOY AQUINO INT, PH) observed 2100 UTC 18 January 2019
Temperature: 24.0°C (75°F)
Dewpoint: 19.0°C (66°F) [RH = 74%]
Pressure (altimeter): 29.91 inches Hg (1013.0 mb)
Winds: from the E (100 degrees) at 2 MPH (2 knots; 1.0 m/s)
Visibility: 6 or more miles (10+ km)
Ceiling: at least 12,000 feet AGL
Clouds: few clouds at 2500 feet AGL
Weather: no significant weather observed at this time

METAR text: RPLL 182000Z 05002KT 9999 FEW025 25/18 Q1013 NOSIG RMK A2991
Conditions at: RPLL (NINOY AQUINO INT, PH) observed 2000 UTC 18 January 2019
Temperature: 25.0°C (77°F)
Dewpoint: 18.0°C (64°F) [RH = 65%]
Pressure (altimeter): 29.91 inches Hg (1013.0 mb)
Winds: from the NE (50 degrees) at 2 MPH (2 knots; 1.0 m/s)
Visibility: 6 or more miles (10+ km)
Ceiling: at least 12,000 feet AGL
Clouds: few clouds at 2500 feet AGL
Weather: no significant weather observed at this time

METAR text: RPLL 181900Z 03002KT 9999 FEW025 25/19 Q1013 NOSIG RMK A2991
Conditions at: RPLL (NINOY AQUINO INT, PH) observed 1900 UTC 18 January 2019
Temperature: 25.0°C (77°F)
Dewpoint: 19.0°C (66°F) [RH = 69%]
Pressure (altimeter): 29.91 inches Hg (1013.0 mb)
Winds: from the NNE (30 degrees) at 2 MPH (2 knots; 1.0 m/s)
Visibility: 6 or more miles (10+ km)
Ceiling: at least 12,000 feet AGL
Clouds: few clouds at 2500 feet AGL
Weather: no significant weather observed at this time

METAR text: RPLL 181800Z 04003KT 9999 FEW030 25/19 Q1013 NOSIG RMK A2991
Conditions at: RPLL (NINOY AQUINO INT, PH) observed 1800 UTC 18 January 2019
Temperature: 25.0°C (77°F)
Dewpoint: 19.0°C (66°F) [RH = 69%]
Pressure (altimeter): 29.91 inches Hg (1013.0 mb)
Winds: from the NE (40 degrees) at 3 MPH (3 knots; 1.5 m/s)
Visibility: 6 or more miles (10+ km)
Ceiling: at least 12,000 feet AGL
Clouds: few clouds at 3000 feet AGL
Weather: no significant weather observed at this time

METAR text: RPLL 181700Z 03004KT 9999 FEW030 25/19 Q1014 NOSIG RMK A2994
Conditions at: RPLL (NINOY AQUINO INT, PH) observed 1700 UTC 18 January 2019
Temperature: 25.0°C (77°F)
Dewpoint: 19.0°C (66°F) [RH = 69%]
Pressure (altimeter): 29.94 inches Hg (1014.0 mb)
Winds: from the NNE (30 degrees) at 5 MPH (4 knots; 2.1 m/s)
Visibility: 6 or more miles (10+ km)
Ceiling: at least 12,000 feet AGL
Clouds: few clouds at 3000 feet AGL
Weather: no significant weather observed at this time

METAR text: RPLL 181600Z 07004KT 9999 FEW030 25/19 Q1014 NOSIG RMK A2994
Conditions at: RPLL (NINOY AQUINO INT, PH) observed 1600 UTC 18 January 2019
Temperature: 25.0°C (77°F)
Dewpoint: 19.0°C (66°F) [RH = 69%]
Pressure (altimeter): 29.94 inches Hg (1014.0 mb)
Winds: from the ENE (70 degrees) at 5 MPH (4 knots; 2.1 m/s)
Visibility: 6 or more miles (10+ km)
Ceiling: at least 12,000 feet AGL
Clouds: few clouds at 3000 feet AGL
Weather: no significant weather observed at this time

METAR text: RPLL 181500Z 06003KT 9999 FEW025 25/20 Q1015 NOSIG RMK A2997
Conditions at: RPLL (NINOY AQUINO INT, PH) observed 1500 UTC 18 January 2019
Temperature: 25.0°C (77°F)
Dewpoint: 20.0°C (68°F) [RH = 74%]
Pressure (altimeter): 29.97 inches Hg (1015.0 mb)
Winds: from the ENE (60 degrees) at 3 MPH (3 knots; 1.5 m/s)
Visibility: 6 or more miles (10+ km)
Ceiling: at least 12,000 feet AGL
Clouds: few clouds at 2500 feet AGL
Weather: no significant weather observed at this time

METAR text: RPLL 181400Z 09006KT 9999 FEW025 26/20 Q1015 NOSIG RMK A2997
Conditions at: RPLL (NINOY AQUINO INT, PH) observed 1400 UTC 18 January 2019
Temperature: 26.0°C (79°F)
Dewpoint: 20.0°C (68°F) [RH = 70%]
Pressure (altimeter): 29.97 inches Hg (1015.0 mb)
Winds: from the E (90 degrees) at 7 MPH (6 knots; 3.1 m/s)
Visibility: 6 or more miles (10+ km)
Ceiling: at least 12,000 feet AGL
Clouds: few clouds at 2500 feet AGL
Weather: no significant weather observed at this time

METAR text: RPLL 181300Z 09008KT 9999 FEW025 SCT300 26/20 Q1015 NOSIG RMK A2997
Conditions at: RPLL (NINOY AQUINO INT, PH) observed 1300 UTC 18 January 2019
Temperature: 26.0°C (79°F)
Dewpoint: 20.0°C (68°F) [RH = 70%]
Pressure (altimeter): 29.97 inches Hg (1015.0 mb)
Winds: from the E (90 degrees) at 9 MPH (8 knots; 4.1 m/s)
Visibility: 6 or more miles (10+ km)
Ceiling: at least 12,000 feet AGL
Clouds: few clouds at 2500 feet AGL
scattered clouds at 30000 feet AGL
Weather: no significant weather observed at this time

METAR text: RPLL 181200Z 09010KT 9999 FEW025 SCT300 26/20 Q1014 NOSIG RMK A2994
Conditions at: RPLL (NINOY AQUINO INT, PH) observed 1200 UTC 18 January 2019
Temperature: 26.0°C (79°F)
Dewpoint: 20.0°C (68°F) [RH = 70%]
Pressure (altimeter): 29.94 inches Hg (1014.0 mb)
Winds: from the E (90 degrees) at 12 MPH (10 knots; 5.1 m/s)
Visibility: 6 or more miles (10+ km)
Ceiling: at least 12,000 feet AGL
Clouds: few clouds at 2500 feet AGL
scattered clouds at 30000 feet AGL
Weather: no significant weather observed at this time

METAR text: RPLL 181100Z 09010KT 9999 FEW025 SCT300 27/18 Q1013 NOSIG RMK A2991
Conditions at: RPLL (NINOY AQUINO INT, PH) observed 1100 UTC 18 January 2019
Temperature: 27.0°C (81°F)
Dewpoint: 18.0°C (64°F) [RH = 58%]
Pressure (altimeter): 29.91 inches Hg (1013.0 mb)
Winds: from the E (90 degrees) at 12 MPH (10 knots; 5.1 m/s)
Visibility: 6 or more miles (10+ km)
Ceiling: at least 12,000 feet AGL
Clouds: few clouds at 2500 feet AGL
scattered clouds at 30000 feet AGL
Weather: no significant weather observed at this time

METAR text: RPLL 181000Z 10012KT 9999 FEW025 BKN300 28/18 Q1012 NOSIG RMK A2988
Conditions at: RPLL (NINOY AQUINO INT, PH) observed 1000 UTC 18 January 2019
Temperature: 28.0°C (82°F)
Dewpoint: 18.0°C (64°F) [RH = 55%]
Pressure (altimeter): 29.88 inches Hg (1012.0 mb)
Winds: from the E (100 degrees) at 14 MPH (12 knots; 6.2 m/s)
Visibility: 6 or more miles (10+ km)
Ceiling: 30000 feet AGL
Clouds: few clouds at 2500 feet AGL
broken clouds at 30000 feet AGL
Weather: no significant weather observed at this time

METAR text: RPLL 180900Z 10012KT 9999 FEW025 BKN300 29/17 Q1012 NOSIG RMK A2988
Conditions at: RPLL (NINOY AQUINO INT, PH) observed 0900 UTC 18 January 2019
Temperature: 29.0°C (84°F)
Dewpoint: 17.0°C (63°F) [RH = 48%]
Pressure (altimeter): 29.88 inches Hg (1012.0 mb)
Winds: from the E (100 degrees) at 14 MPH (12 knots; 6.2 m/s)
Visibility: 6 or more miles (10+ km)
Ceiling: 30000 feet AGL
Clouds: few clouds at 2500 feet AGL
broken clouds at 30000 feet AGL
Weather: no significant weather observed at this time

METAR text: RPLL 180800Z 10014KT 9999 FEW025 BKN300 29/18 Q1011 NOSIG RMK A2985
Conditions at: RPLL (NINOY AQUINO INT, PH) observed 0800 UTC 18 January 2019
Temperature: 29.0°C (84°F)
Dewpoint: 18.0°C (64°F) [RH = 52%]
Pressure (altimeter): 29.85 inches Hg (1011.0 mb)
Winds: from the E (100 degrees) at 16 MPH (14 knots; 7.2 m/s)
Visibility: 6 or more miles (10+ km)
Ceiling: 30000 feet AGL
Clouds: few clouds at 2500 feet AGL
broken clouds at 30000 feet AGL
Weather: no significant weather observed at this time

METAR text: RPLL 180700Z 10014KT 9999 FEW025 BKN300 31/19 Q1011 NOSIG RMK A2985
Conditions at: RPLL (NINOY AQUINO INT, PH) observed 0700 UTC 18 January 2019
Temperature: 31.0°C (88°F)
Dewpoint: 19.0°C (66°F) [RH = 49%]
Pressure (altimeter): 29.85 inches Hg (1011.0 mb)
Winds: from the E (100 degrees) at 16 MPH (14 knots; 7.2 m/s)
Visibility: 6 or more miles (10+ km)
Ceiling: 30000 feet AGL
Clouds: few clouds at 2500 feet AGL
broken clouds at 30000 feet AGL
Weather: no significant weather observed at this time

METAR text: RPLL 180600Z 10016KT 9999 FEW025 SCT300 31/20 Q1012 NOSIG RMK A2988
Conditions at: RPLL (NINOY AQUINO INT, PH) observed 0600 UTC 18 January 2019
Temperature: 31.0°C (88°F)
Dewpoint: 20.0°C (68°F) [RH = 52%]
Pressure (altimeter): 29.88 inches Hg (1012.0 mb)
Winds: from the E (100 degrees) at 18 MPH (16 knots; 8.2 m/s)
Visibility: 6 or more miles (10+ km)
Ceiling: at least 12,000 feet AGL
Clouds: few clouds at 2500 feet AGL
scattered clouds at 30000 feet AGL
Weather: no significant weather observed at this time

METAR text: RPLL 180500Z 11012KT 9999 FEW025 30/21 Q1013 NOSIG RMK A2991
Conditions at: RPLL (NINOY AQUINO INT, PH) observed 0500 UTC 18 January 2019
Temperature: 30.0°C (86°F)
Dewpoint: 21.0°C (70°F) [RH = 59%]
Pressure (altimeter): 29.91 inches Hg (1013.0 mb)
Winds: from the ESE (110 degrees) at 14 MPH (12 knots; 6.2 m/s)
Visibility: 6 or more miles (10+ km)
Ceiling: at least 12,000 feet AGL
Clouds: few clouds at 2500 feet AGL
Weather: no significant weather observed at this time

METAR text: RPLL 180400Z 10014KT 9999 FEW025 31/19 Q1013 NOSIG RMK A2991
Conditions at: RPLL (NINOY AQUINO INT, PH) observed 0400 UTC 18 January 2019
Temperature: 31.0°C (88°F)
Dewpoint: 19.0°C (66°F) [RH = 49%]
Pressure (altimeter): 29.91 inches Hg (1013.0 mb)
Winds: from the E (100 degrees) at 16 MPH (14 knots; 7.2 m/s)
Visibility: 6 or more miles (10+ km)
Ceiling: at least 12,000 feet AGL
Clouds: few clouds at 2500 feet AGL
Weather: no significant weather observed at this time

METAR text: RPLL 180300Z 11012KT 9999 FEW025 SCT300 31/19 Q1014 NOSIG RMK A2994
Conditions at: RPLL (NINOY AQUINO INT, PH) observed 0300 UTC 18 January 2019
Temperature: 31.0°C (88°F)
Dewpoint: 19.0°C (66°F) [RH = 49%]
Pressure (altimeter): 29.94 inches Hg (1014.0 mb)
Winds: from the ESE (110 degrees) at 14 MPH (12 knots; 6.2 m/s)
Visibility: 6 or more miles (10+ km)
Ceiling: at least 12,000 feet AGL
Clouds: few clouds at 2500 feet AGL
scattered clouds at 30000 feet AGL
Weather: no significant weather observed at this time

METAR text: RPLL 180200Z 11004KT 9999 FEW025 BKN300 29/20 Q1015 NOSIG RMK A2997
Conditions at: RPLL (NINOY AQUINO INT, PH) observed 0200 UTC 18 January 2019
Temperature: 29.0°C (84°F)
Dewpoint: 20.0°C (68°F) [RH = 58%]
Pressure (altimeter): 29.97 inches Hg (1015.0 mb)
Winds: from the ESE (110 degrees) at 5 MPH (4 knots; 2.1 m/s)
Visibility: 6 or more miles (10+ km)
Ceiling: 30000 feet AGL
Clouds: few clouds at 2500 feet AGL
broken clouds at 30000 feet AGL
Weather: no significant weather observed at this time

Forecast for: RPLL (NINOY AQUINO INT, PH)
Text: TAF RPLL 191100Z 1912/2018 11008KT 9999 FEW025 SCT100 TX32/2006Z TN24/1921Z
Forecast period: 1200 UTC 19 January 2019 to 1800 UTC 20 January 2019
Forecast type: FROM: standard forecast or significant change
Winds: from the ESE (110 degrees) at 9 MPH (8 knots; 4.1 m/s)
Visibility: 6 or more miles 10+ km)
Ceiling: at least 12,000 feet AGL
Clouds: few clouds at 2500 feet AGL
scattered clouds at 10000 feet AGL
Weather: no significant weather forecast for this period
Text: TEMPO 1912/1918 08010KT SCT025
Forecast period: 1200 to 1800 UTC 19 January 2019
Forecast type: TEMPORARY: The following changes expected for less than half the time period
Winds: from the E (80 degrees) at 12 MPH (10 knots; 5.1 m/s)
Visibility: missing
Ceiling: at least 12,000 feet AGL
Clouds: scattered clouds at 2500 feet AGL
Weather: no significant weather forecast for this period
Text: TEMPO 2003/2009 11015KT FEW025 BKN100
Forecast period: 0300 to 0900 UTC 20 January 2019
Forecast type: TEMPORARY: The following changes expected for less than half the time period
Winds: from the ESE (110 degrees) at 17 MPH (15 knots; 7.7 m/s)
Visibility: missing
Ceiling: 10000 feet AGL
Clouds: few clouds at 2500 feet AGL
broken clouds at 10000 feet AGL
Weather: no significant weather forecast for this period